Time;durP1;ratioP1;P1;durP2;ratioP2;P2;SDS_P1;SDS_P2;PMS_P1;PMS_P2;Temp;Humidity;BMP_temperature;BMP_pressure;BME280_temperature;BME280_humidity;BME280_pressure;Samples;Min_cycle;Max_cycle;Signal;HPM_P1;HPM_P2
2022/12/31 00:01:05;;;;;;;;;;;;;;;12.40;73.34;100188.81;5015752;28;19913;-77
2022/12/31 00:03:31;;;;;;;;;;;;;;;12.41;73.24;100193.16;5015281;28;19924;-76
2022/12/31 00:05:56;;;;;;;;;;;;;;;12.42;73.27;100200.19;5015709;28;19913;-75
2022/12/31 00:08:21;;;;;;;;;;;;;;;12.43;73.17;100194.53;5015211;28;19917;-76
2022/12/31 00:10:47;;;;;;;;;;;;;;;12.44;73.39;100192.63;5014771;28;19963;-77
2022/12/31 00:13:12;;;;;;;;;;;;;;;12.45;73.14;100192.34;5015016;28;19940;-76
2022/12/31 00:15:38;;;;;;;;;;;;;;;12.46;73.32;100191.25;5015166;28;19920;-79
2022/12/31 00:18:04;;;;;;;;;;;;;;;12.47;73.24;100192.91;4997961;28;20349;-77
2022/12/31 00:20:29;;;;;;;;;;;;;;;12.47;73.22;100192.91;5015054;28;20266;-77
2022/12/31 00:22:54;;;;;;;;;;;;;;;12.49;73.26;100176.38;5015201;28;19967;-78
2022/12/31 00:25:20;;;;;;;;;;;;;;;12.49;73.43;100174.47;5013837;28;20357;-77
2022/12/31 00:27:45;;;;;;;;;;;;;;;12.51;73.25;100166.09;5015062;28;19917;-75
2022/12/31 00:30:11;;;;;;;;;;;;;;;12.52;73.34;100175.81;5013403;28;20384;-76
2022/12/31 00:32:36;;;;;;;;;;;;;;;12.52;73.14;100176.66;5014889;28;19975;-75
2022/12/31 00:35:01;;;;;;;;;;;;;;;12.53;73.25;100177.47;5013437;28;19924;-77
2022/12/31 00:37:27;;;;;;;;;;;;;;;12.54;73.06;100171.75;5014960;28;20469;-77
2022/12/31 00:39:52;;;;;;;;;;;;;;;12.56;73.10;100175.03;5014345;28;19913;-76
2022/12/31 00:42:17;;;;;;;;;;;;;;;12.55;73.02;100170.69;5014613;28;20320;-76
2022/12/31 00:44:43;;;;;;;;;;;;;;;12.57;73.06;100162.28;5013596;28;19929;-77
2022/12/31 00:47:08;;;;;;;;;;;;;;;12.58;72.99;100172.06;5013433;28;20004;-76
2022/12/31 00:49:33;;;;;;;;;;;;;;;12.59;73.08;100172.84;5015057;28;20342;-76
2022/12/31 00:51:58;;;;;;;;;;;;;;;12.60;73.16;100169.91;5013092;28;19964;-77
2022/12/31 00:54:24;;;;;;;;;;;;;;;12.61;73.12;100159.88;5014381;28;19921;-77
2022/12/31 00:56:49;;;;;;;;;;;;;;;12.61;72.90;100155.25;5013411;28;19971;-79
2022/12/31 00:59:14;;;;;;;;;;;;;;;12.63;73.14;100150.38;5014311;28;19921;-78
2022/12/31 01:01:40;;;;;;;;;;;;;;;12.64;73.21;100143.06;5012880;28;20032;-77
2022/12/31 01:04:07;;;;;;;;;;;;;;;12.64;73.29;100143.88;5014808;28;20013;-77
2022/12/31 01:06:33;;;;;;;;;;;;;;;12.63;73.30;100136.84;5014969;28;19913;-78
2022/12/31 01:08:58;;;;;;;;;;;;;;;12.64;73.39;100135.75;5013115;28;20392;-79
2022/12/31 01:11:27;;;;;;;;;;;;;;;12.63;73.55;100147.66;5014288;28;19917;-78
2022/12/31 01:13:55;;;;;;;;;;;;;;;12.64;73.63;100148.47;5014239;28;19918;-80
2022/12/31 01:16:22;;;;;;;;;;;;;;;12.64;73.43;100146.56;5014390;28;19979;-80
2022/12/31 01:18:48;;;;;;;;;;;;;;;12.65;73.45;100150.09;5016616;28;19920;-79
2022/12/31 01:21:13;;;;;;;;;;;;;;;12.63;73.54;100144.97;5015079;28;19917;-80
2022/12/31 01:23:39;;;;;;;;;;;;;;;12.65;73.51;100152.81;5013201;28;20362;-80
2022/12/31 01:26:05;;;;;;;;;;;;;;;12.66;73.60;100163.38;5014219;28;19956;-79
2022/12/31 01:28:31;;;;;;;;;;;;;;;12.64;73.86;100154.69;5013649;28;20330;-79
2022/12/31 01:30:57;;;;;;;;;;;;;;;12.64;73.87;100170.97;5014155;28;20350;-78
2022/12/31 01:33:22;;;;;;;;;;;;;;;12.65;73.82;100163.63;5014883;28;19914;-78
2022/12/31 01:35:48;;;;;;;;;;;;;;;12.64;74.17;100173.66;5014112;28;19920;-80
2022/12/31 01:38:13;;;;;;;;;;;;;;;12.64;74.31;100186.41;5014055;28;19917;-79
2022/12/31 01:40:39;;;;;;;;;;;;;;;12.65;74.23;100201.56;5012696;28;19913;-79
2022/12/31 01:43:13;;;;;;;;;;;;;;;12.64;74.39;100230.56;5013667;28;19920;-80
2022/12/31 01:45:40;;;;;;;;;;;;;;;12.65;74.40;100272.03;5014077;28;19913;-80
2022/12/31 01:48:09;;;;;;;;;;;;;;;12.67;74.34;100253.59;5012635;28;19909;-79
2022/12/31 01:50:34;;;;;;;;;;;;;;;12.66;74.39;100222.19;5013917;28;19921;-77
2022/12/31 01:53:01;;;;;;;;;;;;;;;12.66;74.49;100176.94;5012552;28;19917;-76
2022/12/31 01:55:46;;;;;;;;;;;;;;;12.67;74.41;100159.56;5013835;28;19968;-76
2022/12/31 01:58:16;;;;;;;;;;;;;;;12.67;74.17;100194.00;5014882;28;19933;-79
2022/12/31 02:00:43;;;;;;;;;;;;;;;12.67;74.33;100210.25;5013676;28;19913;-77
2022/12/31 02:03:08;;;;;;;;;;;;;;;12.68;74.48;100210.00;5014018;28;19988;-77
2022/12/31 02:05:46;;;;;;;;;;;;;;;12.67;74.23;100213.78;5014451;28;19956;-76
2022/12/31 02:08:12;;;;;;;;;;;;;;;12.68;74.32;100212.69;5017970;28;20004;-79
2022/12/31 02:10:38;;;;;;;;;;;;;;;12.70;74.32;100212.41;5017193;28;19956;-77
2022/12/31 02:13:03;;;;;;;;;;;;;;;12.69;74.30;100227.88;5017362;28;19971;-77
2022/12/31 02:15:36;;;;;;;;;;;;;;;12.69;74.40;100221.63;5016693;28;20343;-78
2022/12/31 02:18:10;;;;;;;;;;;;;;;12.70;74.52;100234.94;5016732;28;20287;-77
2022/12/31 02:20:47;;;;;;;;;;;;;;;12.71;74.32;100235.75;5016128;28;19930;-77
2022/12/31 02:23:28;;;;;;;;;;;;;;;12.72;74.13;100232.75;5016712;28;20016;-76
2022/12/31 02:26:08;;;;;;;;;;;;;;;12.71;74.30;100233.84;5017662;28;19913;-78
2022/12/31 02:28:33;;;;;;;;;;;;;;;12.72;74.16;100259.03;5016595;28;19953;-77
2022/12/31 02:31:07;;;;;;;;;;;;;;;12.72;74.40;100243.59;5017044;28;20313;-77
2022/12/31 02:33:43;;;;;;;;;;;;;;;12.73;74.50;100257.97;5016782;28;19913;-78
2022/12/31 02:36:11;;;;;;;;;;;;;;;12.73;74.29;100253.34;5017557;28;19917;-78
2022/12/31 02:38:39;;;;;;;;;;;;;;;12.74;74.36;100254.16;5015552;28;19913;-82
2022/12/31 02:41:04;;;;;;;;;;;;;;;12.74;74.13;100244.13;5016742;28;19913;-78
2022/12/31 02:43:30;;;;;;;;;;;;;;;12.74;74.05;100238.72;5015311;28;19922;-78
2022/12/31 02:46:30;;;;;;;;;;;;;;;12.75;74.40;100231.38;5015736;28;20354;-78
2022/12/31 02:49:16;;;;;;;;;;;;;;;12.76;74.10;100246.59;4975550;28;19921;-78
2022/12/31 02:51:53;;;;;;;;;;;;;;;12.76;74.27;100233.03;5013588;28;19917;-77
2022/12/31 02:54:18;;;;;;;;;;;;;;;12.76;74.24;100231.13;5017095;28;19914;-77
2022/12/31 02:56:51;;;;;;;;;;;;;;;12.76;74.14;100231.13;5016941;28;19924;-78
2022/12/31 03:02:15;;;;;;;;;;;;;;;12.77;74.24;100234.66;5016355;28;19951;-77
2022/12/31 03:04:46;;;;;;;;;;;;;;;12.77;74.15;100227.34;5016866;28;19917;-79
2022/12/31 03:07:13;;;;;;;;;;;;;;;12.78;73.96;100218.13;5016506;28;19967;-79
2022/12/31 03:09:38;;;;;;;;;;;;;;;12.78;73.86;100220.03;5016957;28;19992;-81
2022/12/31 03:14:49;;;;;;;;;;;;;;;12.80;73.99;100217.03;5016380;28;19935;-79
2022/12/31 03:17:14;;;;;;;;;;;;;;;12.81;73.84;100205.13;5016007;28;20399;-77
2022/12/31 03:22:29;;;;;;;;;;;;;;;12.81;73.96;100202.41;5016225;28;19924;-79
2022/12/31 03:27:38;;;;;;;;;;;;;;;12.82;73.83;100206.75;5016268;28;20287;-78
2022/12/31 03:30:03;;;;;;;;;;;;;;;12.81;73.90;100203.22;5031109;28;19913;-81
2022/12/31 03:32:29;;;;;;;;;;;;;;;12.83;73.68;100195.63;5015653;28;19921;-79
2022/12/31 03:34:54;;;;;;;;;;;;;;;12.83;73.67;100198.34;4999029;28;19917;-79
2022/12/31 03:37:20;;;;;;;;;;;;;;;12.82;73.74;100188.56;5015869;28;19924;-79
2022/12/31 03:39:45;;;;;;;;;;;;;;;12.83;73.76;100189.41;5014748;28;19914;-79
2022/12/31 03:42:10;;;;;;;;;;;;;;;12.83;73.81;100189.41;5015656;28;20004;-78
2022/12/31 03:44:36;;;;;;;;;;;;;;;12.84;73.87;100185.59;5016056;28;19969;-78
2022/12/31 03:47:01;;;;;;;;;;;;;;;12.83;73.58;100173.97;5015661;28;19918;-80
2022/12/31 03:49:26;;;;;;;;;;;;;;;12.84;73.55;100178.28;5015933;28;19924;-80
2022/12/31 03:51:51;;;;;;;;;;;;;;;12.83;73.42;100179.38;5015802;28;19918;-80
2022/12/31 03:54:17;;;;;;;;;;;;;;;12.84;73.41;100178.28;5014692;28;19976;-79
2022/12/31 03:56:42;;;;;;;;;;;;;;;12.84;73.49;100183.72;5015972;28;19921;-78
2022/12/31 03:59:07;;;;;;;;;;;;;;;12.85;73.44;100204.31;5015481;28;19944;-78
2022/12/31 04:01:32;;;;;;;;;;;;;;;12.85;73.55;100198.91;5015579;28;20051;-78
2022/12/31 04:03:58;;;;;;;;;;;;;;;12.84;73.41;100201.88;5015516;28;19940;-82
2022/12/31 04:06:23;;;;;;;;;;;;;;;12.84;73.43;100204.59;5014593;28;19917;-78
2022/12/31 04:08:48;;;;;;;;;;;;;;;12.82;73.55;100199.41;5015479;28;20016;-79
2022/12/31 04:11:13;;;;;;;;;;;;;;;12.82;73.49;100199.41;5015446;28;20369;-78
2022/12/31 04:13:38;;;;;;;;;;;;;;;12.82;73.75;100193.19;5014145;28;20300;-80
2022/12/31 04:16:04;;;;;;;;;;;;;;;12.80;73.80;100189.94;5015024;28;20020;-78
2022/12/31 04:18:29;;;;;;;;;;;;;;;12.77;73.96;100181.28;5015177;28;19918;-76
2022/12/31 04:20:59;;;;;;;;;;;;;;;12.77;73.88;100173.16;5015516;28;19913;-79
2022/12/31 04:23:24;;;;;;;;;;;;;;;12.77;73.91;100175.03;5014226;28;19913;-77
2022/12/31 04:25:50;;;;;;;;;;;;;;;12.76;73.97;100178.84;5014994;28;19921;-76
2022/12/31 04:28:15;;;;;;;;;;;;;;;12.76;74.03;100171.50;5013939;28;19917;-76
2022/12/31 04:30:40;;;;;;;;;;;;;;;12.76;73.88;100162.56;5014952;28;19918;-76
2022/12/31 04:33:05;;;;;;;;;;;;;;;12.76;74.30;100162.56;5014714;28;19917;-78
2022/12/31 04:35:31;;;;;;;;;;;;;;;12.75;73.85;100172.59;5013511;28;19975;-77
2022/12/31 04:37:56;;;;;;;;;;;;;;;12.76;74.06;100179.63;5014449;28;19917;-77
2022/12/31 04:40:21;;;;;;;;;;;;;;;12.76;74.38;100181.53;5014627;28;20330;-76
2022/12/31 04:42:46;;;;;;;;;;;;;;;12.76;74.24;100184.25;5014614;28;20346;-78
2022/12/31 04:45:12;;;;;;;;;;;;;;;12.75;74.17;100190.75;5013137;28;19972;-76
2022/12/31 04:47:37;;;;;;;;;;;;;;;12.75;74.21;100199.72;5014244;28;19923;-76
2022/12/31 04:50:02;;;;;;;;;;;;;;;12.75;74.12;100205.13;5014548;28;19940;-79
2022/12/31 04:52:28;;;;;;;;;;;;;;;12.75;74.26;100207.84;5014181;28;20008;-76
2022/12/31 04:54:53;;;;;;;;;;;;;;;12.74;74.50;100208.91;5014193;28;20008;-75
2022/12/31 04:57:18;;;;;;;;;;;;;;;12.74;74.42;100214.31;5014422;28;19918;-75
2022/12/31 04:59:43;;;;;;;;;;;;;;;12.74;74.59;100221.66;5014298;28;19918;-76
2022/12/31 05:02:09;;;;;;;;;;;;;;;12.74;74.55;100216.22;5014269;28;20338;-76
2022/12/31 05:04:34;;;;;;;;;;;;;;;12.72;74.62;100219.19;5014384;28;20270;-77
2022/12/31 05:06:59;;;;;;;;;;;;;;;12.72;74.67;100221.91;5014623;28;19918;-76
2022/12/31 05:09:26;;;;;;;;;;;;;;;12.73;74.68;100214.59;5013937;28;19909;-76
2022/12/31 05:11:51;;;;;;;;;;;;;;;12.73;74.81;100215.41;5014224;28;19917;-75
2022/12/31 05:14:16;;;;;;;;;;;;;;;12.73;74.46;100212.72;5014399;28;19960;-75
2022/12/31 05:16:42;;;;;;;;;;;;;;;12.74;74.94;100208.09;5013010;28;19917;-75
2022/12/31 05:19:08;;;;;;;;;;;;;;;12.74;74.72;100216.22;5014389;28;19961;-78
2022/12/31 05:21:33;;;;;;;;;;;;;;;12.74;74.74;100206.19;5014416;28;19921;-74
2022/12/31 05:23:59;;;;;;;;;;;;;;;12.75;74.66;100220.56;5014314;28;19913;-76
2022/12/31 05:26:24;;;;;;;;;;;;;;;12.76;74.61;100219.47;5012726;28;20024;-76
2022/12/31 05:28:49;;;;;;;;;;;;;;;12.75;74.73;100218.69;5013779;28;20358;-75
2022/12/31 05:31:14;;;;;;;;;;;;;;;12.76;74.57;100216.78;5013982;28;19918;-75
2022/12/31 05:33:40;;;;;;;;;;;;;;;12.76;74.89;100223.00;5013980;28;19921;-76
2022/12/31 05:36:05;;;;;;;;;;;;;;;12.77;75.18;100237.34;5012821;28;20000;-75
2022/12/31 05:38:30;;;;;;;;;;;;;;;12.77;75.54;100223.81;5014557;28;19924;-76
2022/12/31 05:41:00;;;;;;;;;;;;;;;12.75;75.50;100237.66;5017974;28;19917;-76
2022/12/31 05:43:25;;;;;;;;;;;;;;;12.76;75.38;100243.88;5017870;28;20358;-77
2022/12/31 05:45:50;;;;;;;;;;;;;;;12.76;75.34;100243.88;5017883;28;19928;-77
2022/12/31 05:48:15;;;;;;;;;;;;;;;12.77;74.98;100248.19;5017610;28;20332;-77
2022/12/31 05:50:41;;;;;;;;;;;;;;;12.80;74.99;100242.25;5017575;28;20335;-76
2022/12/31 05:53:06;;;;;;;;;;;;;;;12.80;75.09;100239.56;5017300;28;19925;-76
2022/12/31 05:55:31;;;;;;;;;;;;;;;12.81;74.99;100245.78;5000071;28;19928;-75
2022/12/31 05:57:57;;;;;;;;;;;;;;;12.83;75.25;100221.94;5017547;28;20301;-76
2022/12/31 06:00:22;;;;;;;;;;;;;;;12.82;75.35;100234.66;5016298;28;19917;-75
2022/12/31 06:02:47;;;;;;;;;;;;;;;12.82;75.35;100240.06;5016582;28;19933;-76
2022/12/31 06:05:12;;;;;;;;;;;;;;;12.83;75.70;100238.19;5017792;28;19917;-75
2022/12/31 06:07:37;;;;;;;;;;;;;;;12.82;75.74;100237.38;5017492;28;20016;-75
2022/12/31 06:10:04;;;;;;;;;;;;;;;12.83;75.96;100227.38;5017441;28;19917;-75
2022/12/31 06:12:29;;;;;;;;;;;;;;;12.84;76.08;100228.97;5017266;28;19917;-75
2022/12/31 06:14:54;;;;;;;;;;;;;;;12.84;75.70;100247.94;5016377;28;20289;-75
2022/12/31 06:17:21;;;;;;;;;;;;;;;12.86;75.93;100249.31;5017498;28;19917;-76
2022/12/31 06:19:46;;;;;;;;;;;;;;;12.87;76.18;100237.38;5016877;28;20281;-76
2022/12/31 06:22:11;;;;;;;;;;;;;;;12.88;76.19;100236.31;5015920;28;19924;-76
2022/12/31 06:24:37;;;;;;;;;;;;;;;12.90;76.02;100227.88;5016917;28;19924;-76
2022/12/31 06:27:02;;;;;;;;;;;;;;;12.89;76.27;100235.19;5017152;28;20281;-76
2022/12/31 06:29:27;;;;;;;;;;;;;;;12.91;76.10;100232.25;5017228;28;19960;-76
2022/12/31 06:31:52;;;;;;;;;;;;;;;12.91;76.05;100233.03;5017206;28;19918;-76
2022/12/31 06:34:18;;;;;;;;;;;;;;;12.92;76.45;100236.56;5016903;28;19924;-76
2022/12/31 06:36:43;;;;;;;;;;;;;;;12.91;76.60;100243.06;5015983;28;20281;-75
2022/12/31 06:39:08;;;;;;;;;;;;;;;12.92;76.56;100241.97;5016742;28;20409;-74
2022/12/31 06:41:33;;;;;;;;;;;;;;;12.93;77.19;100240.91;5017101;28;19978;-75
2022/12/31 06:43:59;;;;;;;;;;;;;;;12.94;76.70;100231.69;5016555;28;20021;-75
2022/12/31 06:46:24;;;;;;;;;;;;;;;12.96;76.72;100234.94;5016375;28;19913;-75
2022/12/31 06:48:49;;;;;;;;;;;;;;;12.97;76.83;100228.44;5016498;28;19967;-75
2022/12/31 06:51:16;;;;;;;;;;;;;;;12.97;76.77;100234.66;5016412;28;19925;-76
2022/12/31 06:53:41;;;;;;;;;;;;;;;13.00;77.14;100249.56;5016956;28;19939;-75
2022/12/31 06:56:08;;;;;;;;;;;;;;;13.02;76.92;100235.75;5016701;28;19921;-75
2022/12/31 06:58:34;;;;;;;;;;;;;;;13.03;76.89;100259.91;5017084;28;19964;-75
2022/12/31 07:01:08;;;;;;;;;;;;;;;13.04;77.12;100264.22;5016536;28;19961;-77
2022/12/31 07:03:48;;;;;;;;;;;;;;;13.05;77.05;100255.00;5016727;28;20064;-76
2022/12/31 07:06:15;;;;;;;;;;;;;;;13.08;77.20;100259.91;5016804;28;20008;-76
2022/12/31 07:09:01;;;;;;;;;;;;;;;13.09;77.22;100258.81;5015271;28;19914;-76
2022/12/31 07:11:29;;;;;;;;;;;;;;;13.12;77.39;100252.03;4985078;28;19965;-76
2022/12/31 07:14:00;;;;;;;;;;;;;;;13.12;77.11;100244.69;5016316;28;19936;-76
2022/12/31 07:16:43;;;;;;;;;;;;;;;13.14;77.11;100247.94;5016163;28;19920;-76
2022/12/31 07:19:27;;;;;;;;;;;;;;;13.14;77.36;100242.53;5016345;28;20273;-75
2022/12/31 07:21:53;;;;;;;;;;;;;;;13.15;77.33;100244.19;5015246;28;19913;-76
2022/12/31 07:24:18;;;;;;;;;;;;;;;13.16;77.32;100243.06;5016542;28;19913;-78
2022/12/31 07:26:43;;;;;;;;;;;;;;;13.19;77.03;100239.81;5016070;28;20015;-74
2022/12/31 07:29:24;;;;;;;;;;;;;;;13.22;77.17;100235.75;5016205;28;19913;-76
2022/12/31 07:32:21;;;;;;;;;;;;;;;13.24;77.25;100238.19;5014953;28;20378;-75
2022/12/31 07:34:49;;;;;;;;;;;;;;;13.24;76.90;100225.44;4993250;28;20290;-76
2022/12/31 07:37:21;;;;;;;;;;;;;;;13.27;77.03;100237.66;5015121;28;19936;-76
2022/12/31 07:39:58;;;;;;;;;;;;;;;13.27;77.09;100233.06;5015463;28;20302;-76
2022/12/31 07:42:29;;;;;;;;;;;;;;;13.28;77.04;100234.69;5016008;28;20378;-76
2022/12/31 07:44:55;;;;;;;;;;;;;;;13.30;77.34;100242.53;5015761;28;20383;-76
2022/12/31 07:47:24;;;;;;;;;;;;;;;13.30;77.41;100235.22;5015630;28;19913;-76
2022/12/31 07:49:50;;;;;;;;;;;;;;;13.34;77.18;100249.06;5015584;28;19957;-76
2022/12/31 07:52:16;;;;;;;;;;;;;;;13.34;77.16;100240.94;5016184;28;19920;-75
2022/12/31 07:54:41;;;;;;;;;;;;;;;13.37;77.13;100249.31;5014258;28;19917;-75
2022/12/31 07:57:08;;;;;;;;;;;;;;;13.38;77.04;100264.53;5016606;28;19967;-75
2022/12/31 07:59:39;;;;;;;;;;;;;;;13.40;76.89;100272.38;5015290;28;19913;-75
2022/12/31 08:02:17;;;;;;;;;;;;;;;13.40;77.29;100267.75;5014416;28;19960;-75
2022/12/31 08:04:42;;;;;;;;;;;;;;;13.42;77.07;100287.28;5015806;28;19996;-73
2022/12/31 08:07:17;;;;;;;;;;;;;;;13.44;76.87;100294.38;5015620;28;19979;-74
2022/12/31 08:09:45;;;;;;;;;;;;;;;13.45;77.28;100301.41;5014714;28;19972;-75
2022/12/31 08:12:10;;;;;;;;;;;;;;;13.47;77.42;100318.22;5015134;28;19957;-75
2022/12/31 08:14:43;;;;;;;;;;;;;;;13.48;77.27;100323.41;5013724;28;19918;-74
2022/12/31 08:17:10;;;;;;;;;;;;;;;13.48;77.17;100331.53;5015943;28;19914;-75
2022/12/31 08:19:36;;;;;;;;;;;;;;;13.50;76.77;100331.25;5015025;28;19913;-76
2022/12/31 08:22:20;;;;;;;;;;;;;;;13.51;76.97;100351.88;5014606;28;19928;-75
2022/12/31 08:24:45;;;;;;;;;;;;;;;13.53;76.96;100360.53;5014850;28;20007;-74
2022/12/31 08:27:27;;;;;;;;;;;;;;;13.56;77.17;100365.44;5015760;28;19952;-74
2022/12/31 08:30:10;;;;;;;;;;;;;;;13.58;77.02;100379.53;5015168;28;19913;-75
2022/12/31 08:32:45;;;;;;;;;;;;;;;13.57;77.15;100386.88;5015134;28;19920;-75
2022/12/31 08:35:13;;;;;;;;;;;;;;;13.58;77.22;100377.66;5015383;28;19917;-75
2022/12/31 08:37:40;;;;;;;;;;;;;;;13.60;76.75;100390.94;5014975;28;19914;-75
2022/12/31 08:40:09;;;;;;;;;;;;;;;13.61;76.95;100412.41;5014368;28;19960;-75
2022/12/31 08:42:44;;;;;;;;;;;;;;;13.64;76.99;100405.59;5014501;28;19921;-74
2022/12/31 08:45:21;;;;;;;;;;;;;;;13.66;76.71;100421.59;5013632;28;19913;-75
2022/12/31 08:47:52;;;;;;;;;;;;;;;13.68;77.08;100416.72;5013587;28;19990;-75
2022/12/31 08:50:18;;;;;;;;;;;;;;;13.68;77.12;100425.69;5014462;28;19914;-75
2022/12/31 08:52:44;;;;;;;;;;;;;;;13.70;77.00;100420.78;4996767;28;20304;-74
2022/12/31 08:55:13;;;;;;;;;;;;;;;13.72;77.00;100434.91;5012980;28;19933;-75
2022/12/31 08:57:51;;;;;;;;;;;;;;;13.73;77.00;100433.81;5014385;28;20358;-74
2022/12/31 09:00:17;;;;;;;;;;;;;;;13.76;76.98;100429.78;5014367;28;20007;-75
2022/12/31 09:02:54;;;;;;;;;;;;;;;13.77;76.90;100434.91;5014133;28;19922;-74
2022/12/31 09:05:49;;;;;;;;;;;;;;;13.78;76.88;100436.56;5014309;28;19913;-74
2022/12/31 09:08:17;;;;;;;;;;;;;;;13.79;76.97;100457.19;5014341;28;19921;-74
2022/12/31 09:10:49;;;;;;;;;;;;;;;13.80;76.83;100475.09;5012949;28;19913;-75
2022/12/31 09:13:14;;;;;;;;;;;;;;;13.81;76.80;100467.78;5013922;28;20425;-75
2022/12/31 09:15:46;;;;;;;;;;;;;;;13.81;76.81;100475.94;5014102;28;20003;-74
2022/12/31 09:18:11;;;;;;;;;;;;;;;13.83;77.03;100480.00;5014174;28;19924;-74
2022/12/31 09:20:37;;;;;;;;;;;;;;;13.84;76.45;100478.09;5012667;28;19914;-75
2022/12/31 09:23:02;;;;;;;;;;;;;;;13.85;76.60;100499.53;5014406;28;19920;-76
2022/12/31 09:25:28;;;;;;;;;;;;;;;13.88;76.82;100494.66;5014564;28;19919;-74
2022/12/31 09:28:02;;;;;;;;;;;;;;;13.89;76.61;100499.00;5012481;28;19917;-75
2022/12/31 09:30:31;;;;;;;;;;;;;;;13.90;76.84;100506.06;5014305;28;19945;-75
2022/12/31 09:33:05;;;;;;;;;;;;;;;13.91;76.71;100502.25;5013772;28;20004;-76
2022/12/31 09:35:51;;;;;;;;;;;;;;;13.93;76.75;100513.66;5014287;28;19913;-76
2022/12/31 09:38:35;;;;;;;;;;;;;;;13.93;76.45;100519.09;5014308;28;19984;-76
2022/12/31 09:41:09;;;;;;;;;;;;;;;13.94;76.47;100521.53;5012639;28;19936;-74
2022/12/31 09:44:02;;;;;;;;;;;;;;;13.95;76.41;100515.00;5013844;28;20359;-75
2022/12/31 09:46:39;;;;;;;;;;;;;;;13.96;76.25;100502.25;5013711;28;19920;-74
2022/12/31 09:49:07;;;;;;;;;;;;;;;13.98;76.51;100508.22;5012845;28;20268;-75
2022/12/31 09:51:51;;;;;;;;;;;;;;;13.99;76.51;100499.00;5013487;28;20293;-76
2022/12/31 09:54:19;;;;;;;;;;;;;;;14.01;76.57;100511.22;5013729;28;19913;-76
2022/12/31 09:56:50;;;;;;;;;;;;;;;14.00;76.35;100511.50;5013522;28;19972;-76
2022/12/31 09:59:50;;;;;;;;;;;;;;;14.02;76.27;100518.28;5014327;28;19917;-75
2022/12/31 10:02:25;;;;;;;;;;;;;;;14.04;76.42;100513.41;4972383;28;19914;-76
2022/12/31 10:04:59;;;;;;;;;;;;;;;14.05;76.27;100523.16;5007186;28;19913;-76
2022/12/31 10:07:30;;;;;;;;;;;;;;;14.06;76.13;100529.41;5013829;28;19913;-71
2022/12/31 10:10:04;;;;;;;;;;;;;;;14.07;76.17;100526.44;5013585;28;19996;-75
2022/12/31 10:12:45;;;;;;;;;;;;;;;14.08;76.18;100519.09;5013750;28;19914;-74
2022/12/31 10:15:28;;;;;;;;;;;;;;;14.10;76.14;100524.25;5013648;28;19921;-74
2022/12/31 10:17:54;;;;;;;;;;;;;;;14.12;76.02;100519.38;5013202;28;20289;-75
2022/12/31 10:20:29;;;;;;;;;;;;;;;14.13;76.30;100505.50;5013421;28;19913;-74
2022/12/31 10:22:54;;;;;;;;;;;;;;;14.18;76.38;100501.97;5013376;28;20000;-75
2022/12/31 10:25:22;;;;;;;;;;;;;;;14.20;76.47;100505.25;5013622;28;19960;-75
2022/12/31 10:27:51;;;;;;;;;;;;;;;14.20;76.10;100495.19;5016044;28;19917;-75
2022/12/31 10:30:21;;;;;;;;;;;;;;;14.20;76.40;100489.75;5016535;28;20004;-74
2022/12/31 10:33:02;;;;;;;;;;;;;;;14.21;76.33;100485.97;5016717;28;19920;-75
2022/12/31 10:35:38;;;;;;;;;;;;;;;14.22;76.37;100497.63;5017382;28;19952;-74
2022/12/31 10:38:06;;;;;;;;;;;;;;;14.22;76.33;100500.34;5016879;28;20361;-75
2022/12/31 10:40:37;;;;;;;;;;;;;;;14.23;76.32;100497.34;5016612;28;19924;-75
2022/12/31 10:43:13;;;;;;;;;;;;;;;14.22;76.17;100501.16;5015368;28;20285;-74
2022/12/31 10:45:57;;;;;;;;;;;;;;;14.24;76.35;100504.44;5016583;28;20012;-75
2022/12/31 10:48:28;;;;;;;;;;;;;;;14.25;76.30;100503.31;5016285;28;19979;-74
2022/12/31 10:50:56;;;;;;;;;;;;;;;14.28;75.82;100500.06;5015452;28;19914;-74
2022/12/31 10:53:40;;;;;;;;;;;;;;;14.29;76.17;100517.19;5016398;28;19913;-74
2022/12/31 10:56:11;;;;;;;;;;;;;;;14.30;75.71;100521.53;5016784;28;19921;-74
2022/12/31 10:58:44;;;;;;;;;;;;;;;14.30;75.67;100521.53;5016591;28;19913;-74
2022/12/31 11:01:10;;;;;;;;;;;;;;;14.31;75.92;100522.34;5016135;28;19920;-74
2022/12/31 11:03:41;;;;;;;;;;;;;;;14.32;76.00;100524.00;5016753;28;19913;-73
2022/12/31 11:06:25;;;;;;;;;;;;;;;14.31;75.93;100535.94;5016291;28;19913;-74
2022/12/31 11:08:50;;;;;;;;;;;;;;;14.31;75.77;100527.78;5016534;28;19960;-73
2022/12/31 11:11:15;;;;;;;;;;;;;;;14.33;76.14;100533.75;5015876;28;20332;-77
2022/12/31 11:14:06;;;;;;;;;;;;;;;14.36;76.24;100530.50;5017050;28;19918;-75
2022/12/31 11:16:31;;;;;;;;;;;;;;;14.40;76.02;100526.97;5016363;28;19914;-75
2022/12/31 11:19:06;;;;;;;;;;;;;;;14.42;75.78;100518.53;5015901;28;19913;-75
2022/12/31 11:22:10;;;;;;;;;;;;;;;14.43;75.96;100514.72;5016481;28;20362;-74
2022/12/31 11:24:36;;;;;;;;;;;;;;;14.43;76.16;100533.75;4974837;28;19914;-75
2022/12/31 11:27:20;;;;;;;;;;;;;;;14.44;75.99;100535.41;4975153;28;19976;-75
2022/12/31 11:30:04;;;;;;;;;;;;;;;14.43;75.77;100541.91;4998681;28;19913;-75
2022/12/31 11:32:45;;;;;;;;;;;;;;;14.44;75.95;100538.13;5014788;28;19917;-75
2022/12/31 11:35:15;;;;;;;;;;;;;;;14.45;76.14;100537.81;5014473;28;19913;-74
2022/12/31 11:37:45;;;;;;;;;;;;;;;14.47;75.98;100546.53;5015685;28;20215;-75
2022/12/31 11:40:10;;;;;;;;;;;;;;;14.48;76.01;100539.19;5015512;28;19914;-75
2022/12/31 11:42:53;;;;;;;;;;;;;;;14.50;75.59;100542.44;5015883;28;19920;-75
2022/12/31 11:45:36;;;;;;;;;;;;;;;14.50;75.98;100540.53;5016206;28;19913;-74
2022/12/31 11:48:20;;;;;;;;;;;;;;;14.50;75.96;100534.28;5014866;28;19964;-79
2022/12/31 11:51:08;;;;;;;;;;;;;;;14.53;75.73;100522.91;5016085;28;19913;-77
2022/12/31 11:53:43;;;;;;;;;;;;;;;14.56;75.64;100533.22;5015767;28;19924;-77
2022/12/31 11:56:08;;;;;;;;;;;;;;;14.57;75.22;100539.50;5014998;28;19913;-76
2022/12/31 11:58:33;;;;;;;;;;;;;;;14.58;75.49;100530.22;5015385;28;19918;-77
2022/12/31 12:01:15;;;;;;;;;;;;;;;14.60;75.13;100538.94;5015123;28;20012;-78
2022/12/31 12:03:43;;;;;;;;;;;;;;;14.61;75.25;100535.13;5015445;28;19936;-76
2022/12/31 12:06:13;;;;;;;;;;;;;;;14.63;75.40;100543.81;5015206;28;19918;-78
2022/12/31 12:08:39;;;;;;;;;;;;;;;14.64;75.47;100543.56;5015184;28;19914;-78
2022/12/31 12:11:06;;;;;;;;;;;;;;;14.65;75.48;100541.63;5014400;28;19929;-76
2022/12/31 12:13:32;;;;;;;;;;;;;;;14.65;75.30;100533.47;5014975;28;19986;-78
2022/12/31 12:15:59;;;;;;;;;;;;;;;14.64;75.54;100532.69;5014968;28;19917;-78
2022/12/31 12:18:44;;;;;;;;;;;;;;;14.64;75.40;100531.84;5014941;28;20385;-77
2022/12/31 12:21:19;;;;;;;;;;;;;;;14.65;75.50;100530.78;5014626;28;19913;-78
2022/12/31 12:23:53;;;;;;;;;;;;;;;14.66;75.56;100537.81;5014829;28;20375;-78
2022/12/31 12:26:36;;;;;;;;;;;;;;;14.65;75.14;100528.84;5014644;28;20297;-79
2022/12/31 12:29:11;;;;;;;;;;;;;;;14.65;75.75;100545.16;5014026;28;19913;-79
2022/12/31 12:31:37;;;;;;;;;;;;;;;14.65;75.46;100537.00;5014247;28;19948;-80
2022/12/31 12:34:03;;;;;;;;;;;;;;;14.65;75.67;100528.03;5014532;28;20432;-79
2022/12/31 12:36:28;;;;;;;;;;;;;;;14.66;75.24;100524.22;5015274;28;20003;-78
2022/12/31 12:39:00;;;;;;;;;;;;;;;14.67;75.70;100515.00;5014710;28;19913;-79
2022/12/31 12:41:26;;;;;;;;;;;;;;;14.68;75.44;100516.63;5013281;28;19913;-77
2022/12/31 12:44:04;;;;;;;;;;;;;;;14.68;75.45;100525.59;5014976;28;20250;-78
2022/12/31 12:46:31;;;;;;;;;;;;;;;14.69;75.59;100512.78;5014963;28;19917;-78
2022/12/31 12:48:57;;;;;;;;;;;;;;;14.69;75.65;100521.78;5014053;28;19921;-78
2022/12/31 12:51:40;;;;;;;;;;;;;;;14.68;75.37;100519.34;5014461;28;19921;-78
2022/12/31 12:54:24;;;;;;;;;;;;;;;14.70;75.35;100519.88;5013061;28;20003;-77
2022/12/31 12:56:55;;;;;;;;;;;;;;;14.70;75.40;100528.03;5013920;28;19917;-78
2022/12/31 12:59:33;;;;;;;;;;;;;;;14.70;75.70;100519.88;5014278;28;19913;-78